Terminal Aerodrome Forecast
Issued by NWS New Orleans/Baton Rouge, LA

Home | Current Version | Previous Version | Text Only | Print | Product List | Glossary On
Versions: 1 2 3 4 5 6 7 8 9 10 11 12
000
FTUS44 KLIX 262323
TAFNEW
TAF
KNEW 262323Z 2700/2724 18016KT P6SM BKN020
     FM270600 27015KT P6SM BKN015
      TEMPO 2706/2710 3SM -TSRA BKN010CB
     FM271200 34012KT P6SM BKN050
     FM272100 25004KT P6SM SKC
     FM272300 15007KT P6SM SKC=

USA.gov is the U.S. government's official web portal to all federal, state and local government web resources and services.